Time;durP1;ratioP1;P1;durP2;ratioP2;P2;SDS_P1;SDS_P2;PMS_P1;PMS_P2;Temp;Humidity;BMP_temperature;BMP_pressure;BME280_temperature;BME280_humidity;BME280_pressure;Samples;Min_cycle;Max_cycle;Signal;HPM_P1;HPM_P2
2021/08/20 00:04:52;;;;;;;7.70;5.40;;;;;;;16.92;77.15;100486.66;4911926;60;21640;-84
2021/08/20 00:10:01;;;;;;;6.10;5.50;;;;;;;16.95;77.33;100489.02;4912118;60;21221;-82
2021/08/20 00:15:07;;;;;;;8.10;5.03;;;;;;;17.00;77.14;100496.53;4912244;60;22201;-83
2021/08/20 00:20:13;;;;;;;12.20;5.80;;;;;;;17.01;77.53;100496.38;4912413;60;21573;-82
2021/08/20 00:25:20;;;;;;;10.73;5.80;;;;;;;17.02;77.75;100501.22;4912350;60;21198;-84
2021/08/20 00:30:26;;;;;;;11.37;5.80;;;;;;;17.01;78.06;100497.71;4912135;60;21209;-82
2021/08/20 00:35:32;;;;;;;11.27;6.00;;;;;;;17.03;78.54;100495.72;4907913;58;21176;-83
2021/08/20 00:40:38;;;;;;;7.87;5.40;;;;;;;17.05;78.40;100496.40;4907451;60;21208;-82
2021/08/20 00:45:57;;;;;;;7.10;5.33;;;;;;;17.08;78.44;100493.41;4907421;60;21551;-83
2021/08/20 00:51:26;;;;;;;7.60;6.00;;;;;;;17.11;78.22;100492.25;4907450;60;21221;-83
2021/08/20 00:56:32;;;;;;;8.87;4.83;;;;;;;17.15;78.42;100493.09;4907486;60;21251;-83
2021/08/20 01:01:39;;;;;;;9.07;5.87;;;;;;;17.17;78.57;100484.91;4907335;60;21121;-84
2021/08/20 01:06:44;;;;;;;5.20;4.73;;;;;;;17.17;78.56;100488.42;4907373;60;21180;-82
2021/08/20 01:11:52;;;;;;;9.07;4.77;;;;;;;17.19;78.51;100485.09;4907216;60;22050;-84
2021/08/20 01:16:59;;;;;;;5.77;5.13;;;;;;;17.22;78.63;100490.11;4907337;60;21213;-82
2021/08/20 01:22:08;;;;;;;6.07;4.93;;;;;;;17.23;78.45;100489.62;4907150;60;21188;-83
2021/08/20 01:27:17;;;;;;;6.13;4.93;;;;;;;17.23;78.50;100481.09;4906618;60;21515;-83
2021/08/20 01:32:24;;;;;;;5.50;5.00;;;;;;;17.25;79.00;100488.95;4906448;59;21577;-83
2021/08/20 01:37:29;;;;;;;7.90;5.63;;;;;;;17.25;79.28;100496.14;4964511;60;21239;-83
2021/08/20 01:42:36;;;;;;;7.47;5.50;;;;;;;17.25;79.41;100496.98;4964601;60;21171;-84
2021/08/20 01:47:42;;;;;;;5.77;5.23;;;;;;;17.26;79.17;100499.99;4964334;60;21233;-82
2021/08/20 01:52:47;;;;;;;6.33;4.87;;;;;;;17.26;79.39;100505.83;4964493;59;21231;-84
2021/08/20 01:57:53;;;;;;;8.23;4.67;;;;;;;17.26;80.01;100499.99;4964085;59;21187;-83
2021/08/20 02:02:59;;;;;;;5.57;5.07;;;;;;;17.26;79.83;100502.66;4964182;59;21215;-83
2021/08/20 02:08:05;;;;;;;5.47;4.90;;;;;;;17.27;79.65;100498.13;4964286;60;21175;-83
2021/08/20 02:13:11;;;;;;;7.30;5.40;;;;;;;17.28;80.08;100495.79;4964168;59;21195;-82
2021/08/20 02:18:19;;;;;;;6.13;5.10;;;;;;;17.28;80.24;100499.80;4964040;60;21799;-84
2021/08/20 02:23:25;;;;;;;10.20;5.57;;;;;;;17.26;80.52;100495.14;4964245;60;21211;-83
2021/08/20 02:28:30;;;;;;;7.20;5.07;;;;;;;17.28;80.52;100488.61;4964234;60;21191;-82
2021/08/20 02:33:40;;;;;;;8.77;4.67;;;;;;;17.29;80.83;100493.45;4954541;59;21125;-82
2021/08/20 02:38:45;;;;;;;8.63;4.73;;;;;;;17.27;81.14;100488.27;4906737;60;21181;-84
2021/08/20 02:43:51;;;;;;;5.77;3.87;;;;;;;17.28;81.19;100492.62;4906950;60;21455;-82
2021/08/20 02:48:58;;;;;;;6.23;5.17;;;;;;;17.27;81.64;100492.28;4906802;60;21197;-85
2021/08/20 02:54:05;;;;;;;7.10;6.03;;;;;;;17.27;82.25;100491.44;4906649;60;21220;-84
2021/08/20 02:59:11;;;;;;;8.20;5.93;;;;;;;17.25;82.57;100491.63;4906729;60;21239;-84
2021/08/20 03:04:17;;;;;;;7.70;5.97;;;;;;;17.26;82.66;100491.13;4906850;60;21197;-83
2021/08/20 03:09:23;;;;;;;8.50;6.07;;;;;;;17.26;82.76;100493.31;4906672;60;21701;-83
2021/08/20 03:14:29;;;;;;;11.47;5.97;;;;;;;17.26;82.68;100501.83;4906779;60;21188;-82
2021/08/20 03:19:37;;;;;;;6.47;5.70;;;;;;;17.26;82.71;100497.81;4906768;60;21181;-83
2021/08/20 03:24:44;;;;;;;12.80;6.53;;;;;;;17.27;82.77;100498.13;4906807;60;21185;-84
2021/08/20 03:29:52;;;;;;;7.37;6.27;;;;;;;17.22;82.96;100499.47;4906781;60;21200;-84
2021/08/20 03:35:02;;;;;;;4.60;4.20;;;;;;;17.20;82.96;100497.45;4906588;58;21201;-84
2021/08/20 03:40:09;;;;;;;7.83;7.03;;;;;;;17.16;83.48;100508.13;4911824;60;21588;-83
2021/08/20 03:45:17;;;;;;;8.63;6.23;;;;;;;17.10;83.51;100510.63;4911651;60;21186;-84
2021/08/20 03:50:24;;;;;;;14.40;6.53;;;;;;;17.03;83.53;100507.74;4911819;60;21209;-81
2021/08/20 03:55:30;;;;;;;13.43;6.73;;;;;;;17.07;83.59;100513.11;4911862;60;21182;-83
2021/08/20 04:00:38;;;;;;;12.20;6.27;;;;;;;17.08;83.52;100515.28;4907173;60;21174;-84
2021/08/20 04:05:45;;;;;;;11.90;6.90;;;;;;;17.10;83.48;100517.30;4911748;60;21501;-83
2021/08/20 04:10:52;;;;;;;7.23;5.77;;;;;;;17.10;83.59;100510.63;4911737;60;21181;-82
2021/08/20 04:16:00;;;;;;;9.40;5.67;;;;;;;17.11;83.94;100519.78;4906529;60;21194;-85
2021/08/20 04:21:06;;;;;;;6.10;5.43;;;;;;;17.10;83.78;100520.81;4888882;59;21656;-84
2021/08/20 04:26:12;;;;;;;7.90;5.97;;;;;;;17.10;84.13;100519.98;4886453;59;21173;-83
2021/08/20 04:31:31;;;;;;;10.97;6.73;;;;;;;17.10;84.49;100527.50;4901591;60;21611;-81
2021/08/20 04:36:54;;;;;;;13.08;6.08;;;;;;;17.11;84.66;100533.15;4913308;59;21620;-81
2021/08/20 04:42:02;;;;;;;18.63;6.90;;;;;;;17.10;84.88;100531.50;4941324;59;21180;-82
2021/08/20 04:47:18;;;;;;;8.70;6.80;;;;;;;17.13;84.95;100531.16;4935739;59;21183;-81
2021/08/20 04:52:41;;;;;;;19.57;6.23;;;;;;;17.18;84.97;100535.53;4942594;59;21224;-81
2021/08/20 04:57:54;;;;;;;5.97;5.40;;;;;;;17.20;85.28;100544.23;4931719;59;21639;-82
2021/08/20 05:03:00;;;;;;;10.63;6.67;;;;;;;17.23;85.13;100535.06;4963292;59;21124;-81
2021/08/20 05:08:06;;;;;;;7.50;6.07;;;;;;;17.28;85.21;100537.22;4944949;59;21496;-82
2021/08/20 05:13:12;;;;;;;17.60;6.67;;;;;;;17.30;85.20;100537.91;4889908;59;22187;-82
2021/08/20 05:18:17;;;;;;;9.33;6.23;;;;;;;17.34;85.56;100540.59;4996232;59;21193;-82
2021/08/20 05:23:23;;;;;;;7.37;5.93;;;;;;;17.40;85.55;100546.64;5046862;59;21181;-82
2021/08/20 05:28:29;;;;;;;8.93;6.00;;;;;;;17.46;85.55;100556.17;5046930;59;21127;-82
2021/08/20 05:33:36;;;;;;;5.53;5.03;;;;;;;17.49;85.25;100564.38;5011495;59;21184;-81
2021/08/20 05:38:42;;;;;;;9.87;5.57;;;;;;;17.52;85.22;100561.38;4962949;59;21253;-82
2021/08/20 05:43:48;;;;;;;7.87;5.43;;;;;;;17.53;85.29;100564.40;4962717;60;21255;-82
2021/08/20 05:48:54;;;;;;;12.27;6.90;;;;;;;17.54;85.18;100562.90;4962728;60;22357;-82
2021/08/20 05:54:00;;;;;;;10.40;5.77;;;;;;;17.55;85.18;100564.58;4962585;60;21191;-81
2021/08/20 05:59:06;;;;;;;7.27;6.23;;;;;;;17.57;85.32;100567.90;4972077;59;21639;-82
2021/08/20 06:04:12;;;;;;;8.80;5.67;;;;;;;17.60;85.31;100568.08;4968776;59;21185;-83
2021/08/20 06:09:18;;;;;;;8.43;6.20;;;;;;;17.63;85.40;100570.93;4966486;59;21185;-84
2021/08/20 06:14:24;;;;;;;6.43;5.30;;;;;;;17.68;85.29;100565.97;4966412;59;21157;-82
2021/08/20 06:19:29;;;;;;;10.13;5.77;;;;;;;17.75;85.39;100570.48;4970753;59;21174;-82
2021/08/20 06:24:37;;;;;;;5.90;5.17;;;;;;;17.83;85.26;100569.68;4966666;59;21193;-81
2021/08/20 06:29:43;;;;;;;5.97;5.20;;;;;;;17.92;85.22;100574.87;4966607;59;21215;-82
2021/08/20 06:34:49;;;;;;;5.67;5.17;;;;;;;18.03;84.90;100578.22;4963877;59;21195;-83
2021/08/20 06:39:55;;;;;;;5.70;4.77;;;;;;;18.10;84.62;100581.92;4908130;59;21259;-84
2021/08/20 06:45:01;;;;;;;7.33;4.67;;;;;;;18.16;84.46;100583.95;4901523;60;21178;-83
2021/08/20 06:50:08;;;;;;;8.53;4.93;;;;;;;18.26;84.38;100588.12;4901320;60;22165;-81
2021/08/20 06:55:14;;;;;;;6.93;5.90;;;;;;;18.46;84.37;100593.16;4908271;59;21233;-84
2021/08/20 07:00:19;;;;;;;10.67;6.97;;;;;;;18.57;83.51;100589.63;4900354;60;21687;-80
2021/08/20 07:05:26;;;;;;;15.10;6.20;;;;;;;18.68;82.94;100591.14;4904367;60;21153;-81
2021/08/20 07:10:31;;;;;;;7.37;5.23;;;;;;;18.78;83.06;100589.14;4905205;60;21189;-81
2021/08/20 07:15:37;;;;;;;10.68;8.05;;;;;;;18.89;82.64;100591.45;4904944;60;21642;-81
2021/08/20 07:20:43;;;;;;;8.00;5.83;;;;;;;19.02;82.33;100584.20;4904938;60;21306;-80
2021/08/20 07:25:49;;;;;;;7.65;5.92;;;;;;;19.17;81.91;100589.69;4904972;60;21200;-80
2021/08/20 07:30:56;;;;;;;12.85;6.53;;;;;;;19.30;80.96;100591.31;4904859;60;21190;-79
2021/08/20 07:36:02;;;;;;;7.03;6.33;;;;;;;19.30;80.47;100589.47;4901525;60;22253;-79
2021/08/20 07:41:08;;;;;;;50.10;11.22;;;;;;;19.29;80.62;100589.14;4948274;59;21467;-79
2021/08/20 07:46:14;;;;;;;15.18;6.50;;;;;;;19.24;80.06;100584.82;4952994;59;21232;-79
2021/08/20 07:51:20;;;;;;;7.20;6.10;;;;;;;19.18;80.27;100588.69;4955999;59;21131;-79
2021/08/20 07:56:25;;;;;;;8.43;6.40;;;;;;;19.12;80.18;100594.72;4954728;59;21213;-79
2021/08/20 08:01:31;;;;;;;13.28;6.70;;;;;;;19.08;80.41;100599.62;4961216;59;21787;-80
2021/08/20 08:06:38;;;;;;;12.68;6.05;;;;;;;19.03;80.60;100610.01;4966382;59;21177;-80
2021/08/20 08:11:43;;;;;;;9.80;5.65;;;;;;;19.02;80.59;100608.84;4959884;59;21178;-80
2021/08/20 08:16:49;;;;;;;8.90;6.33;;;;;;;19.00;80.73;100604.98;4965792;59;21189;-80
2021/08/20 08:21:55;;;;;;;11.35;5.47;;;;;;;19.05;81.22;100607.16;4966306;59;21535;-80
2021/08/20 08:27:00;;;;;;;7.35;5.97;;;;;;;19.19;80.99;100615.33;4966242;59;21165;-78
2021/08/20 08:32:06;;;;;;;8.05;5.40;;;;;;;19.31;80.14;100610.42;4965970;59;21439;-84
2021/08/20 08:37:12;;;;;;;6.08;5.50;;;;;;;19.35;80.21;100605.55;4959184;59;21183;-83
2021/08/20 08:42:18;;;;;;;5.72;5.05;;;;;;;19.46;80.06;100610.53;4901778;60;21743;-83
2021/08/20 08:47:24;;;;;;;9.28;4.40;;;;;;;19.48;79.35;100617.91;4901607;60;21226;-83
2021/08/20 08:52:30;;;;;;;5.00;4.58;;;;;;;19.46;79.45;100617.23;4908739;59;21176;-83
2021/08/20 08:57:36;;;;;;;4.58;4.17;;;;;;;19.44;79.40;100620.09;4905494;60;22161;-82
2021/08/20 09:02:45;;;;;;;6.05;4.92;;;;;;;19.51;79.33;100615.75;4901719;60;21194;-82
2021/08/20 09:07:55;;;;;;;7.10;4.47;;;;;;;19.55;79.24;100620.27;4892421;60;21701;-84
2021/08/20 09:13:03;;;;;;;17.98;8.38;;;;;;;19.60;78.86;100620.05;4903652;60;21242;-82
2021/08/20 09:18:09;;;;;;;8.80;5.55;;;;;;;19.59;78.56;100625.59;4903481;60;21208;-83
2021/08/20 09:23:22;;;;;;;7.70;6.40;;;;;;;19.52;79.33;100628.15;4852243;60;21129;-84
2021/08/20 09:28:33;;;;;;;6.22;5.35;;;;;;;19.31;79.92;100628.69;4890830;60;21246;-82
2021/08/20 09:33:50;;;;;;;11.28;6.95;;;;;;;19.20;80.63;100637.11;4736307;61;21214;-81
2021/08/20 09:38:58;;;;;;;12.58;6.75;;;;;;;19.05;81.55;100642.84;4747505;61;21549;-82
2021/08/20 09:44:07;;;;;;;9.85;7.55;;;;;;;18.89;81.58;100638.85;4739775;62;21253;-82
2021/08/20 09:49:15;;;;;;;9.98;8.08;;;;;;;18.89;82.44;100642.88;4744837;62;21255;-82
2021/08/20 09:54:30;;;;;;;10.98;8.70;;;;;;;18.93;83.45;100650.91;4740600;61;21199;-83
2021/08/20 09:59:36;;;;;;;11.08;9.43;;;;;;;18.87;83.91;100647.06;4744711;62;21253;-83
2021/08/20 10:04:42;;;;;;;10.43;9.35;;;;;;;18.84;84.16;100654.59;4738785;61;21172;-82
2021/08/20 10:09:49;;;;;;;12.15;10.55;;;;;;;18.84;84.32;100645.22;4736367;62;21237;-83
2021/08/20 10:14:56;;;;;;;13.45;7.30;;;;;;;18.90;84.51;100646.73;4742114;62;21196;-83
2021/08/20 10:20:03;;;;;;;9.18;8.28;;;;;;;18.98;85.07;100651.22;4749528;62;21733;-83
2021/08/20 10:25:11;;;;;;;9.35;7.50;;;;;;;19.04;85.16;100649.22;4741973;62;21209;-83
2021/08/20 10:30:16;;;;;;;8.35;7.55;;;;;;;19.06;85.73;100635.64;4749203;62;21532;-85
2021/08/20 10:35:27;;;;;;;8.93;8.08;;;;;;;19.10;85.25;100638.29;4739277;62;21540;-85
2021/08/20 10:40:33;;;;;;;7.97;7.28;;;;;;;19.16;86.42;100630.91;4757311;60;21200;-85
2021/08/20 10:45:44;;;;;;;9.13;8.30;;;;;;;19.38;87.17;100628.84;4962577;59;21177;-84
2021/08/20 10:50:46;;;;;;;12.47;8.68;;;;;;;19.54;86.60;100633.34;4962578;59;21692;-83
2021/08/20 10:55:52;;;;;;;12.58;10.40;;;;;;;19.57;86.39;100627.10;4966466;59;21638;-82
2021/08/20 11:00:58;;;;;;;13.48;8.18;;;;;;;19.68;86.24;100627.75;4966509;59;21189;-83
2021/08/20 11:06:04;;;;;;;9.60;8.65;;;;;;;19.94;87.07;100619.70;4966436;59;21180;-83
2021/08/20 11:11:43;;;;;;;10.13;7.17;;;;;;;20.21;85.90;100618.84;4966336;59;21169;-83
2021/08/20 11:16:48;;;;;;;11.03;9.05;;;;;;;20.57;85.25;100612.39;4966109;59;21205;-83
2021/08/20 11:21:54;;;;;;;10.93;9.70;;;;;;;20.69;82.62;100615.80;4966276;59;21178;-82
2021/08/20 11:27:14;;;;;;;9.30;7.75;;;;;;;20.67;81.47;100616.48;4966435;59;21130;-84
2021/08/20 11:32:20;;;;;;;13.20;9.98;;;;;;;20.63;81.33;100617.02;4960792;59;21090;-82
2021/08/20 11:37:26;;;;;;;10.55;8.18;;;;;;;20.43;81.00;100619.91;4961061;59;21471;-84
2021/08/20 11:42:32;;;;;;;12.60;9.30;;;;;;;20.34;81.45;100629.83;4922250;59;21216;-84
2021/08/20 11:47:38;;;;;;;13.85;10.25;;;;;;;20.15;81.74;100623.61;4904828;60;21193;-85
2021/08/20 11:52:48;;;;;;;13.38;9.10;;;;;;;19.88;82.19;100631.64;4907171;59;21168;-84
2021/08/20 11:57:54;;;;;;;12.73;10.65;;;;;;;19.65;83.13;100641.00;4904744;60;21278;-83
2021/08/20 12:03:09;;;;;;;11.53;10.38;;;;;;;19.50;83.99;100650.28;4904098;60;21137;-83
2021/08/20 12:08:17;;;;;;;10.63;9.10;;;;;;;19.39;85.00;100647.95;4905258;60;21698;-84
2021/08/20 12:13:23;;;;;;;11.18;9.25;;;;;;;19.43;85.40;100657.30;4905464;60;21184;-84
2021/08/20 12:18:30;;;;;;;10.20;7.37;;;;;;;19.47;85.26;100657.30;4905373;60;21303;-82
2021/08/20 12:23:35;;;;;;;7.28;6.08;;;;;;;19.48;84.76;100653.61;4905287;60;21225;-83
2021/08/20 12:28:42;;;;;;;7.10;6.40;;;;;;;19.49;84.23;100645.93;4866993;60;21215;-83
2021/08/20 12:34:07;;;;;;;5.90;5.42;;;;;;;19.50;83.63;100644.09;4903473;60;21246;-83
2021/08/20 12:39:15;;;;;;;6.53;5.35;;;;;;;19.61;83.88;100655.77;4901100;60;21180;-83
2021/08/20 12:44:33;;;;;;;7.05;6.45;;;;;;;19.72;83.03;100653.20;4963062;59;22118;-84
2021/08/20 12:50:04;;;;;;;7.45;6.75;;;;;;;19.70;81.76;100648.54;4961449;59;21221;-83
2021/08/20 12:55:34;;;;;;;8.08;7.28;;;;;;;19.76;82.42;100647.31;4970651;59;21178;-84
2021/08/20 13:00:42;;;;;;;8.23;6.55;;;;;;;19.84;82.21;100638.40;4966802;59;21182;-78
2021/08/20 13:05:59;;;;;;;9.08;8.18;;;;;;;19.94;81.66;100625.58;4960830;59;21182;-80
2021/08/20 13:11:07;;;;;;;15.88;7.35;;;;;;;19.98;81.34;100624.22;4959837;59;21718;-79
2021/08/20 13:16:14;;;;;;;8.35;7.05;;;;;;;20.12;81.73;100619.43;5033870;59;21171;-84
2021/08/20 13:21:20;;;;;;;7.87;7.12;;;;;;;20.34;81.73;100622.61;5047355;59;21225;-84
2021/08/20 13:26:26;;;;;;;9.50;6.90;;;;;;;20.56;79.86;100622.81;4991973;59;21526;-85
2021/08/20 13:31:32;;;;;;;7.22;6.45;;;;;;;20.55;79.85;100639.95;4967313;59;21218;-84
2021/08/20 13:36:37;;;;;;;9.88;7.28;;;;;;;20.48;78.87;100649.73;4963133;60;21176;-84
2021/08/20 13:41:43;;;;;;;7.22;6.50;;;;;;;20.32;77.83;100628.66;4963047;59;21601;-84
2021/08/20 13:46:49;;;;;;;5.58;5.17;;;;;;;20.21;78.10;100635.80;4954979;59;21808;-80
2021/08/20 13:51:56;;;;;;;7.10;6.40;;;;;;;20.12;78.03;100639.56;4932523;59;21147;-80
2021/08/20 13:57:02;;;;;;;9.33;6.78;;;;;;;19.99;78.17;100622.70;4933327;59;21116;-79
2021/08/20 14:02:08;;;;;;;8.80;6.78;;;;;;;19.85;78.25;100640.08;4928580;59;21567;-79
2021/08/20 14:07:14;;;;;;;7.78;6.65;;;;;;;19.76;78.77;100640.60;4860124;60;21242;-79
2021/08/20 14:12:22;;;;;;;9.73;8.70;;;;;;;19.73;79.24;100653.53;4829457;60;21191;-79
2021/08/20 14:17:27;;;;;;;7.62;5.67;;;;;;;19.54;79.42;100646.76;4935506;59;21191;-79
2021/08/20 14:22:34;;;;;;;8.75;7.15;;;;;;;19.32;79.94;100654.50;4966962;59;21183;-79
2021/08/20 14:27:40;;;;;;;10.53;8.10;;;;;;;19.16;80.07;100659.91;4966964;59;21605;-80
2021/08/20 14:32:45;;;;;;;10.28;8.58;;;;;;;19.07;80.60;100670.33;4965874;59;21151;-79
2021/08/20 14:37:51;;;;;;;9.05;7.75;;;;;;;19.10;81.26;100666.44;4962779;59;21200;-80
2021/08/20 14:42:59;;;;;;;9.48;8.18;;;;;;;19.14;81.05;100658.40;4931513;59;21187;-79
2021/08/20 14:48:05;;;;;;;68.47;55.25;;;;;;;19.16;81.74;100673.31;4970037;58;99686;-78
2021/08/20 14:53:10;;;;;;;126.02;109.12;;;;;;;19.22;81.94;100691.91;5028645;57;36359;-82
2021/08/20 14:58:17;;;;;;;88.17;79.32;;;;;;;19.27;82.26;100693.56;5067472;57;21936;-83
2021/08/20 15:03:23;;;;;;;18.52;14.13;;;;;;;19.44;82.90;100685.81;5067416;57;21243;-83
2021/08/20 15:08:30;;;;;;;14.78;12.58;;;;;;;19.58;82.23;100690.48;5067298;57;21170;-82
2021/08/20 15:13:37;;;;;;;20.10;18.07;;;;;;;19.66;82.05;100678.40;5067281;57;21552;-83
2021/08/20 15:18:43;;;;;;;11.85;8.08;;;;;;;19.86;82.37;100682.02;5067344;57;21580;-83
2021/08/20 15:23:50;;;;;;;10.88;9.00;;;;;;;19.99;81.61;100682.28;5064965;57;22066;-81
2021/08/20 15:28:56;;;;;;;9.60;7.65;;;;;;;19.96;80.43;100674.06;5048095;57;21606;-82
2021/08/20 15:34:03;;;;;;;8.98;7.90;;;;;;;19.91;80.20;100675.59;5063738;57;21637;-81
2021/08/20 15:39:09;;;;;;;7.78;6.97;;;;;;;20.08;81.23;100666.94;5030898;57;21557;-82
2021/08/20 15:44:15;;;;;;;8.78;7.75;;;;;;;20.29;80.25;100663.97;5065662;57;21453;-83
2021/08/20 15:49:23;;;;;;;9.35;8.40;;;;;;;20.32;79.54;100666.77;5067081;57;21180;-82
2021/08/20 15:54:29;;;;;;;9.10;8.20;;;;;;;20.43;78.10;100660.20;4981759;56;50412;-83
2021/08/20 15:59:34;;;;;;;7.37;6.75;;;;;;;20.42;77.28;100661.22;4948504;59;21177;-85
2021/08/20 16:04:41;;;;;;;9.28;7.83;;;;;;;20.33;77.54;100656.36;4941307;59;21216;-82
2021/08/20 16:09:47;;;;;;;8.90;7.55;;;;;;;20.22;76.90;100657.62;4859885;59;21703;-84
2021/08/20 16:14:53;;;;;;;8.53;7.60;;;;;;;20.13;76.61;100656.02;4948495;59;21591;-82
2021/08/20 16:20:00;;;;;;;8.95;7.20;;;;;;;20.05;76.95;100649.84;4994954;56;65937;-85
2021/08/20 16:25:08;;;;;;;8.08;7.28;;;;;;;19.94;77.23;100659.98;4927536;60;21125;-85
2021/08/20 16:30:15;;;;;;;12.58;8.35;;;;;;;19.89;77.84;100666.88;5062966;58;21531;-82
2021/08/20 16:35:27;;;;;;;10.50;9.48;;;;;;;19.92;78.14;100666.53;5048603;58;21728;-85
2021/08/20 16:40:32;;;;;;;8.97;7.57;;;;;;;19.93;77.97;100672.23;5060547;58;21116;-82
2021/08/20 16:45:38;;;;;;;6.53;5.87;;;;;;;19.85;77.72;100676.31;5015782;58;21155;-80
2021/08/20 16:50:45;;;;;;;8.88;7.78;;;;;;;19.74;77.69;100689.59;4974194;58;21580;-79
2021/08/20 16:55:51;;;;;;;9.65;8.65;;;;;;;19.60;78.45;100691.66;4974734;58;21171;-82
2021/08/20 17:00:56;;;;;;;10.20;8.50;;;;;;;19.51;79.06;100671.25;5006132;58;21179;-82
2021/08/20 17:06:02;;;;;;;12.15;7.92;;;;;;;19.56;80.13;100680.42;5029558;58;21179;-81
2021/08/20 17:11:08;;;;;;;16.73;10.10;;;;;;;19.64;80.21;100682.27;5033623;58;21623;-80
2021/08/20 17:16:14;;;;;;;25.72;16.12;;;;;;;19.53;80.20;100688.84;5054598;58;21713;-79
2021/08/20 17:21:20;;;;;;;16.77;12.33;;;;;;;19.45;80.58;100698.22;5023173;58;21175;-80
2021/08/20 17:26:26;;;;;;;11.75;9.88;;;;;;;19.39;81.17;100700.77;5002756;59;21226;-80
2021/08/20 17:31:32;;;;;;;10.53;9.13;;;;;;;19.30;81.29;100705.30;5003035;58;21170;-82
2021/08/20 17:36:37;;;;;;;13.72;9.88;;;;;;;19.22;81.63;100713.37;5054654;58;21549;-82
2021/08/20 17:41:43;;;;;;;12.93;9.65;;;;;;;19.17;81.98;100711.69;5042820;58;21170;-83
2021/08/20 17:46:49;;;;;;;11.78;10.53;;;;;;;19.11;82.11;100719.89;5052251;58;21845;-82
2021/08/20 17:51:54;;;;;;;13.45;10.58;;;;;;;19.05;82.34;100724.61;5065706;58;21671;-82
2021/08/20 17:57:00;;;;;;;16.55;11.05;;;;;;;19.00;82.41;100730.97;5067484;58;21180;-83
2021/08/20 18:02:05;;;;;;;19.45;12.18;;;;;;;18.95;82.63;100729.28;5067173;58;21177;-81
2021/08/20 18:07:11;;;;;;;17.67;14.65;;;;;;;19.03;82.90;100735.16;5067552;58;21655;-83
2021/08/20 18:12:17;;;;;;;31.52;19.92;;;;;;;19.11;83.32;100738.66;5067448;58;21234;-83
2021/08/20 18:17:23;;;;;;;33.40;19.65;;;;;;;19.21;83.25;100743.87;5067474;58;21173;-83
2021/08/20 18:22:29;;;;;;;74.17;29.95;;;;;;;19.24;82.18;100755.60;5067286;58;21174;-82
2021/08/20 18:27:37;;;;;;;55.20;24.25;;;;;;;19.24;82.45;100750.24;5067412;58;21508;-82
2021/08/20 18:32:43;;;;;;;40.25;22.05;;;;;;;19.18;81.65;100758.45;5063402;58;21169;-83
2021/08/20 18:37:49;;;;;;;36.83;18.98;;;;;;;19.03;81.61;100768.67;5067402;58;21174;-82
2021/08/20 18:42:54;;;;;;;38.33;19.95;;;;;;;18.89;81.79;100778.22;5067374;58;21179;-83
2021/08/20 18:48:00;;;;;;;21.42;13.65;;;;;;;18.73;81.52;100784.39;5024363;58;21200;-82
2021/08/20 18:53:07;;;;;;;18.95;11.20;;;;;;;18.56;81.62;100788.85;5012722;59;21994;-83
2021/08/20 18:58:13;;;;;;;11.20;9.70;;;;;;;18.41;81.77;100791.83;5013590;59;21434;-82
2021/08/20 19:03:20;;;;;;;10.93;9.83;;;;;;;18.24;82.06;100796.78;5014908;59;21178;-82
2021/08/20 19:08:26;;;;;;;11.57;9.98;;;;;;;18.13;82.33;100803.77;5017148;59;21231;-83
2021/08/20 19:13:33;;;;;;;14.33;9.88;;;;;;;18.16;82.95;100806.98;5014827;59;21685;-79
2021/08/20 19:18:39;;;;;;;11.50;9.60;;;;;;;18.20;82.74;100802.11;5013670;58;21722;-77
2021/08/20 19:23:44;;;;;;;14.35;10.38;;;;;;;18.25;82.85;100811.35;5011726;59;21152;-78
2021/08/20 19:28:50;;;;;;;12.68;8.98;;;;;;;18.15;82.03;100813.83;5013755;59;21156;-79
2021/08/20 19:34:00;;;;;;;14.57;9.67;;;;;;;18.00;81.90;100819.44;5012380;59;21732;-83
2021/08/20 19:39:04;;;;;;;11.40;9.53;;;;;;;17.89;82.30;100830.73;5008383;59;21217;-84
2021/08/20 19:44:11;;;;;;;15.50;10.03;;;;;;;17.86;82.17;100828.91;4987464;59;21109;-82
2021/08/20 19:49:17;;;;;;;17.63;10.47;;;;;;;17.84;82.10;100825.55;5011355;58;21214;-84
2021/08/20 19:54:23;;;;;;;13.17;10.93;;;;;;;17.74;82.01;100826.97;5012640;58;21233;-84
2021/08/20 19:59:30;;;;;;;17.15;9.78;;;;;;;17.74;82.47;100829.64;5015554;58;21209;-83
2021/08/20 20:04:36;;;;;;;11.17;8.37;;;;;;;17.79;82.47;100827.34;5008364;58;21167;-82
2021/08/20 20:09:42;;;;;;;9.83;8.70;;;;;;;17.73;81.51;100832.48;5010874;58;21170;-82
2021/08/20 20:14:50;;;;;;;9.40;8.43;;;;;;;17.62;81.70;100834.89;5011290;58;21242;-84
2021/08/20 20:19:59;;;;;;;9.93;8.23;;;;;;;17.57;81.75;100831.34;5012877;58;21704;-84
2021/08/20 20:25:06;;;;;;;9.33;8.27;;;;;;;17.50;81.14;100842.83;5007522;58;21178;-85
2021/08/20 20:30:14;;;;;;;8.07;6.73;;;;;;;17.26;80.71;100838.64;5010897;58;21151;-85
2021/08/20 20:35:19;;;;;;;9.83;8.10;;;;;;;17.03;81.06;100840.92;5015269;58;21172;-85
2021/08/20 20:40:25;;;;;;;8.87;7.63;;;;;;;17.01;82.04;100836.23;5013690;58;21173;-83
2021/08/20 20:45:32;;;;;;;12.93;9.57;;;;;;;16.95;81.71;100844.87;5010477;58;21195;-84
2021/08/20 20:50:37;;;;;;;15.20;9.83;;;;;;;16.91;82.12;100840.31;5010776;58;21621;-85
2021/08/20 20:55:43;;;;;;;28.37;17.03;;;;;;;17.03;82.60;100839.09;5024336;58;21181;-85
2021/08/20 21:00:50;;;;;;;26.57;15.40;;;;;;;17.04;82.19;100840.78;5024746;58;21198;-82
2021/08/20 21:05:58;;;;;;;15.00;11.87;;;;;;;17.05;82.45;100843.80;5016265;55;62336;-83
2021/08/20 21:11:03;;;;;;;14.27;10.83;;;;;;;17.08;81.95;100850.17;5052973;58;21173;-82
2021/08/20 21:16:08;;;;;;;13.40;10.90;;;;;;;17.03;81.80;100857.80;5052825;58;21210;-82
2021/08/20 21:21:14;;;;;;;18.23;10.90;;;;;;;17.06;82.15;100862.84;5053026;58;21145;-84
2021/08/20 21:26:20;;;;;;;14.90;10.77;;;;;;;17.04;81.96;100868.84;5052818;58;21170;-82
2021/08/20 21:31:25;;;;;;;19.83;11.60;;;;;;;17.07;81.81;100876.55;5053015;58;21164;-83
2021/08/20 21:36:31;;;;;;;16.10;11.37;;;;;;;17.12;81.82;100882.76;5052845;58;21223;-82
2021/08/20 21:41:37;;;;;;;15.27;12.13;;;;;;;17.11;81.53;100883.78;5052896;58;21522;-82
2021/08/20 21:46:43;;;;;;;14.23;11.20;;;;;;;17.09;81.57;100888.44;5052936;58;21102;-82
2021/08/20 21:51:49;;;;;;;12.73;9.90;;;;;;;17.10;81.35;100891.45;5052805;58;21559;-84
2021/08/20 21:56:56;;;;;;;14.10;11.13;;;;;;;17.08;80.85;100894.77;5052950;58;21789;-83
2021/08/20 22:02:02;;;;;;;16.10;12.37;;;;;;;16.86;80.31;100890.69;5052831;58;21178;-82
2021/08/20 22:07:09;;;;;;;21.37;14.83;;;;;;;16.78;80.97;100895.95;5052855;58;21193;-84
2021/08/20 22:12:15;;;;;;;22.77;15.50;;;;;;;16.74;80.70;100894.56;5052887;58;21696;-85
2021/08/20 22:17:20;;;;;;;21.03;14.13;;;;;;;16.73;80.78;100896.88;5052781;58;21524;-84
2021/08/20 22:22:26;;;;;;;22.47;13.90;;;;;;;16.71;80.67;100894.85;5052714;58;21162;-85
2021/08/20 22:27:32;;;;;;;18.37;14.00;;;;;;;16.68;80.72;100900.48;5052862;58;21158;-82
2021/08/20 22:32:38;;;;;;;20.10;12.07;;;;;;;16.63;80.65;100904.96;5056771;58;21176;-84
2021/08/20 22:37:44;;;;;;;15.10;10.07;;;;;;;16.61;80.55;100910.06;5053868;58;21596;-85
2021/08/20 22:42:50;;;;;;;17.00;9.93;;;;;;;16.59;80.30;100913.38;5053753;58;22070;-82
2021/08/20 22:47:55;;;;;;;15.23;9.57;;;;;;;16.53;80.20;100914.30;4918182;59;22067;-84
2021/08/20 22:53:01;;;;;;;32.67;11.77;;;;;;;16.42;79.97;100910.50;4994289;59;21177;-84
2021/08/20 22:58:07;;;;;;;96.27;27.63;;;;;;;16.29;79.90;100909.16;4994175;59;21200;-84
2021/08/20 23:03:12;;;;;;;62.40;23.33;;;;;;;16.00;79.33;100908.75;4993866;59;21991;-82
2021/08/20 23:08:18;;;;;;;51.33;23.50;;;;;;;15.82;79.91;100907.80;4994394;59;21176;-85
2021/08/20 23:13:24;;;;;;;32.37;19.33;;;;;;;15.82;80.77;100903.80;4994376;59;21172;-85
2021/08/20 23:18:30;;;;;;;13.50;9.43;;;;;;;15.89;81.24;100898.23;4994006;59;21576;-84
2021/08/20 23:23:35;;;;;;;13.60;7.70;;;;;;;15.93;81.12;100897.45;4993993;59;21189;-83
2021/08/20 23:28:42;;;;;;;12.10;7.13;;;;;;;15.91;80.75;100892.75;4994113;59;22185;-81
2021/08/20 23:33:47;;;;;;;11.80;7.80;;;;;;;15.95;80.48;100904.33;4991348;59;21202;-83
2021/08/20 23:38:53;;;;;;;8.00;7.23;;;;;;;15.80;79.89;100898.61;4987710;59;22237;-85